createdAt,value
2023-04-11T00:03:24.241Z,9.23
2023-04-11T00:07:48.592Z,11.45
2023-04-11T00:12:12.603Z,8.55
2023-04-11T00:16:38.348Z,8.90
2023-04-11T00:20:59.616Z,10.93
2023-04-11T00:25:23.771Z,6.47
2023-04-11T00:29:48.500Z,10.65
2023-04-11T00:34:14.236Z,8.33
2023-04-11T00:38:38.412Z,12.40
2023-04-11T00:43:02.757Z,9.00
2023-04-11T00:47:27.171Z,9.67
2023-04-11T00:51:53.326Z,10.23
2023-04-11T00:56:17.313Z,10.35
2023-04-11T01:00:42.213Z,8.45
2023-04-11T01:05:08.029Z,9.83
2023-04-11T01:09:35.886Z,9.45
2023-04-11T01:14:00.246Z,8.57
2023-04-11T01:18:25.695Z,11.93
2023-04-11T01:22:50.721Z,7.97
2023-04-11T01:27:16.275Z,9.60
2023-04-11T01:31:40.936Z,8.83
2023-04-11T01:36:05.833Z,9.07
2023-04-11T01:40:32.665Z,9.85
2023-04-11T01:44:59.209Z,8.10
2023-04-11T01:49:26.187Z,9.43
2023-04-11T01:53:50.082Z,7.65
2023-04-11T01:58:14.097Z,7.57
2023-04-11T02:02:39.701Z,8.43
2023-04-11T02:07:03.855Z,9.25
2023-04-11T02:11:27.822Z,9.52
2023-04-11T02:15:52.061Z,9.37
2023-04-11T02:20:17.484Z,10.57
2023-04-11T02:24:41.525Z,11.45
2023-04-11T02:29:05.501Z,12.77
2023-04-11T02:33:29.439Z,10.87
2023-04-11T02:37:54.999Z,12.70
2023-04-11T02:42:20.498Z,13.05
2023-04-11T02:46:44.668Z,12.97
2023-04-11T02:51:09.051Z,7.78
2023-04-11T02:55:35.018Z,9.38
2023-04-11T02:59:59.008Z,12.80
2023-04-11T03:04:34.105Z,15.05
2023-04-11T03:09:08.520Z,18.20
2023-04-11T03:13:37.109Z,14.73
2023-04-11T03:18:01.253Z,12.20
2023-04-11T03:22:26.081Z,12.52
2023-04-11T03:26:50.261Z,14.23
2023-04-11T03:31:17.830Z,13.30
2023-04-11T03:35:43.161Z,9.70
2023-04-11T03:40:10.004Z,8.93
2023-04-11T03:44:37.253Z,13.57
2023-04-11T03:49:02.702Z,15.93
2023-04-11T03:53:26.790Z,14.35
2023-04-11T03:57:58.287Z,16.83
2023-04-11T04:02:25.070Z,13.87
2023-04-11T04:06:56.640Z,13.55
2023-04-11T04:11:27.005Z,15.02
2023-04-11T04:15:53.068Z,14.80
2023-04-11T04:20:21.842Z,13.25
2023-04-11T04:24:52.561Z,14.73
2023-04-11T04:29:20.692Z,13.90
2023-04-11T04:33:49.550Z,13.88
2023-04-11T04:38:22.172Z,13.93
2023-04-11T04:42:58.257Z,14.15
2023-04-11T04:47:35.164Z,12.93
2023-04-11T04:51:59.946Z,13.52
2023-04-11T04:56:24.193Z,15.05
2023-04-11T05:00:56.188Z,13.83
2023-04-11T05:05:24.931Z,13.90
2023-04-11T05:09:49.432Z,13.20
2023-04-11T05:14:19.610Z,12.27
2023-04-11T05:18:46.172Z,14.63
2023-04-11T05:23:10.378Z,14.73
2023-04-11T05:27:34.999Z,13.10
2023-04-11T05:31:59.344Z,11.37
2023-04-11T05:36:24.919Z,11.80
2023-04-11T05:40:48.872Z,12.30
2023-04-11T05:45:13.285Z,12.80
2023-04-11T05:49:37.324Z,12.52
2023-04-11T05:54:03.518Z,10.70
2023-04-11T05:58:29.149Z,14.60
2023-04-11T06:02:55.241Z,11.55
2023-04-11T06:07:19.476Z,12.40
2023-04-11T06:11:46.166Z,13.25
2023-04-11T06:16:10.700Z,10.70
2023-04-11T06:20:37.926Z,11.85
2023-04-11T06:25:01.952Z,12.32
2023-04-11T06:29:27.422Z,10.20
2023-04-11T06:33:51.521Z,9.20
2023-04-11T06:38:15.514Z,9.93
2023-04-11T06:42:40.098Z,8.63
2023-04-11T06:47:06.472Z,9.10
2023-04-11T06:51:33.574Z,8.48
2023-04-11T06:56:00.034Z,8.32
2023-04-11T07:00:24.839Z,9.23
2023-04-11T07:04:50.575Z,9.20
2023-04-11T07:09:15.560Z,8.02
2023-04-11T07:13:40.088Z,6.43
2023-04-11T07:18:04.376Z,7.95
2023-04-11T07:22:30.785Z,8.35
2023-04-11T07:26:58.490Z,7.23
2023-04-11T07:31:23.124Z,7.43
2023-04-11T07:35:47.379Z,7.25
2023-04-11T07:40:14.452Z,7.50
2023-04-11T07:44:38.832Z,5.83
2023-04-11T07:49:03.055Z,6.85
2023-04-11T07:53:27.793Z,5.40
2023-04-11T07:57:53.129Z,6.40
2023-04-11T08:02:17.539Z,6.57
2023-04-11T08:06:41.761Z,6.43
2023-04-11T08:11:05.732Z,4.10
2023-04-11T08:15:31.574Z,7.78
2023-04-11T08:19:55.865Z,6.50
2023-04-11T08:24:19.847Z,4.93
2023-04-11T08:28:43.872Z,6.93
2023-04-11T08:33:10.296Z,5.32
2023-04-11T08:37:28.680Z,6.13
2023-04-11T08:41:52.725Z,3.77
2023-04-11T08:46:18.435Z,5.82
2023-04-11T08:50:45.917Z,6.47
2023-04-11T08:55:10.699Z,5.40
2023-04-11T08:59:35.025Z,5.13
2023-04-11T09:04:00.529Z,6.68
2023-04-11T09:08:39.447Z,5.25
2023-04-11T09:13:19.895Z,6.33
2023-04-11T09:17:44.080Z,7.10
2023-04-11T09:22:08.943Z,7.00
2023-04-11T09:26:34.308Z,5.57
2023-04-11T09:30:58.936Z,6.80
2023-04-11T09:35:25.483Z,10.60
2023-04-11T09:39:59.470Z,6.60
2023-04-11T09:44:36.614Z,5.13
2023-04-11T09:49:01.603Z,5.32
2023-04-11T09:53:26.427Z,5.05
2023-04-11T09:57:51.549Z,4.27
2023-04-11T10:02:16.951Z,5.45
2023-04-11T10:06:48.925Z,3.90
2023-04-11T10:11:18.508Z,5.40
2023-04-11T10:16:09.853Z,2.78
2023-04-11T10:20:53.278Z,3.92
2023-04-11T10:25:17.844Z,3.00
2023-04-11T10:29:53.155Z,3.88
2023-04-11T10:34:17.173Z,3.08
2023-04-11T10:38:49.792Z,3.65
2023-04-11T10:43:21.969Z,2.37
2023-04-11T10:48:07.678Z,3.70
2023-04-11T10:52:39.156Z,3.85
2023-04-11T10:57:04.950Z,4.60
2023-04-11T11:01:37.412Z,6.72
2023-04-11T11:06:08.945Z,4.15
2023-04-11T11:10:41.333Z,6.00
2023-04-11T11:15:15.989Z,5.45
2023-04-11T11:19:44.918Z,4.32
2023-04-11T11:24:09.073Z,5.90
2023-04-11T11:28:33.285Z,5.30
2023-04-11T11:32:58.962Z,4.13
2023-04-11T11:37:23.329Z,4.32
2023-04-11T11:41:47.498Z,3.57
2023-04-11T11:46:14.319Z,3.38
2023-04-11T11:50:40.140Z,4.82
2023-04-11T11:55:08.024Z,3.07
2023-04-11T11:59:34.069Z,4.63
2023-04-11T12:03:58.501Z,4.55
2023-04-11T12:08:22.133Z,4.13
2023-04-11T12:17:37.840Z,4.60
2023-04-11T12:22:02.188Z,6.35
2023-04-11T12:26:28.022Z,8.03
2023-04-11T12:30:52.197Z,10.85
2023-04-11T12:35:17.858Z,5.22
2023-04-11T12:39:45.146Z,6.17
2023-04-11T12:44:14.873Z,5.45
2023-04-11T12:48:43.022Z,5.07
2023-04-11T12:53:08.796Z,5.25
2023-04-11T12:57:35.197Z,4.90
2023-04-11T13:02:03.108Z,6.10
2023-04-11T13:06:32.191Z,5.57
2023-04-11T13:10:56.432Z,5.80
2023-04-11T13:15:22.283Z,7.30
2023-04-11T13:19:52.054Z,6.05
2023-04-11T13:24:22.838Z,6.00
2023-04-11T13:28:51.893Z,5.60
2023-04-11T13:33:16.616Z,5.38
2023-04-11T13:37:46.156Z,6.47
2023-04-11T13:42:14.625Z,5.13
2023-04-11T13:46:51.138Z,7.10
2023-04-11T13:51:21.877Z,6.28
2023-04-11T13:55:51.698Z,6.67
2023-04-11T14:00:17.606Z,6.13
2023-04-11T14:04:47.744Z,6.45
2023-04-11T14:09:11.736Z,5.70
2023-04-11T14:13:39.088Z,5.75
2023-04-11T14:18:03.247Z,8.27
2023-04-11T14:22:27.495Z,6.68
2023-04-11T14:26:58.343Z,6.53
2023-04-11T14:31:24.206Z,5.93
2023-04-11T14:35:50.452Z,6.22
2023-04-11T14:40:15.001Z,4.87
2023-04-11T14:44:39.901Z,4.90
2023-04-11T14:49:06.416Z,5.53
2023-04-11T14:53:31.809Z,4.33
2023-04-11T14:57:57.202Z,4.07
2023-04-11T15:02:22.114Z,4.28
2023-04-11T15:06:49.760Z,4.55
2023-04-11T15:11:13.941Z,2.53
2023-04-11T15:15:38.276Z,4.03
2023-04-11T15:20:02.416Z,5.15
2023-04-11T15:24:28.242Z,4.00
2023-04-11T15:28:52.303Z,4.07
2023-04-11T15:33:17.299Z,5.03
2023-04-11T15:37:41.327Z,4.23
2023-04-11T15:42:07.248Z,5.50
2023-04-11T15:46:31.880Z,3.60
2023-04-11T15:51:09.015Z,4.82
2023-04-11T15:55:36.792Z,4.40
2023-04-11T16:00:10.151Z,5.88
2023-04-11T16:04:38.692Z,4.50
2023-04-11T16:09:06.687Z,4.00
2023-04-11T16:13:37.980Z,3.40
2023-04-11T16:18:05.796Z,4.57
2023-04-11T16:22:30.225Z,3.83
2023-04-11T16:26:54.919Z,4.32
2023-04-11T16:31:24.796Z,5.03
2023-04-11T16:35:53.642Z,3.70
2023-04-11T16:40:18.536Z,3.53
2023-04-11T16:44:44.139Z,2.70
2023-04-11T16:49:08.891Z,5.07
2023-04-11T16:53:34.437Z,4.60
2023-04-11T16:58:05.435Z,3.90
2023-04-11T17:02:30.582Z,4.78
2023-04-11T17:06:57.432Z,5.07
2023-04-11T17:11:22.905Z,5.00
2023-04-11T17:15:48.561Z,4.78
2023-04-11T17:20:18.116Z,4.05
2023-04-11T17:24:43.850Z,6.43
2023-04-11T17:29:25.829Z,5.03
2023-04-11T17:33:51.351Z,4.68
2023-04-11T17:38:17.861Z,3.87
2023-04-11T17:42:42.568Z,5.18
2023-04-11T17:47:08.998Z,6.35
2023-04-11T17:51:33.253Z,5.57
2023-04-11T17:56:06.238Z,5.03
2023-04-11T18:00:30.599Z,4.80
2023-04-11T18:04:58.257Z,5.10
2023-04-11T18:09:25.628Z,4.00
2023-04-11T18:13:55.812Z,5.03
2023-04-11T18:18:20.364Z,5.10
2023-04-11T18:22:57.557Z,4.90
2023-04-11T18:27:23.113Z,5.18
2023-04-11T18:31:47.199Z,4.80
2023-04-11T18:36:12.047Z,4.53
2023-04-11T18:40:38.708Z,4.07
2023-04-11T18:45:02.918Z,8.00
2023-04-11T18:49:29.899Z,7.65
2023-04-11T18:54:05.247Z,5.17
2023-04-11T18:58:32.909Z,5.30
2023-04-11T19:03:02.516Z,4.80
2023-04-11T19:07:27.493Z,5.73
2023-04-11T19:11:51.400Z,5.60
2023-04-11T19:16:17.205Z,5.32
2023-04-11T19:20:43.988Z,7.50
2023-04-11T19:25:10.409Z,7.30
2023-04-11T19:29:34.526Z,6.25
2023-04-11T19:34:02.915Z,6.05
2023-04-11T19:38:28.198Z,5.93
2023-04-11T19:42:54.933Z,9.25
2023-04-11T19:47:21.014Z,5.90
2023-04-11T19:51:51.963Z,6.20
2023-04-11T19:56:17.297Z,4.82
2023-04-11T20:00:44.224Z,5.43
2023-04-11T20:05:09.500Z,6.80
2023-04-11T20:09:35.372Z,5.15
2023-04-11T20:13:59.371Z,7.97
2023-04-11T20:18:23.274Z,5.72
2023-04-11T20:22:48.203Z,6.23
2023-04-11T20:27:13.707Z,6.47
2023-04-11T20:31:38.633Z,6.88
2023-04-11T20:36:03.364Z,6.13
2023-04-11T20:40:27.355Z,6.38
2023-04-11T20:44:53.501Z,5.47
2023-04-11T20:49:28.093Z,7.00
2023-04-11T20:53:59.027Z,6.85
2023-04-11T20:58:23.611Z,7.40
2023-04-11T21:02:56.030Z,5.72
2023-04-11T21:07:27.626Z,6.20
2023-04-11T21:11:59.817Z,6.43
2023-04-11T21:16:29.873Z,6.00
2023-04-11T21:20:59.525Z,6.20
2023-04-11T21:25:27.303Z,6.55
2023-04-11T21:29:59.434Z,5.63
2023-04-11T21:34:27.054Z,7.00
2023-04-11T21:38:57.897Z,6.60
2023-04-11T21:43:28.589Z,6.13
2023-04-11T21:48:00.314Z,5.90
2023-04-11T21:52:34.078Z,5.37
2023-04-11T21:57:01.189Z,5.22
2023-04-11T22:01:45.859Z,7.13
2023-04-11T22:06:37.876Z,5.80
2023-04-11T22:11:02.055Z,6.78
2023-04-11T22:15:38.281Z,7.32
2023-04-11T22:20:05.009Z,8.27
2023-04-11T22:24:32.345Z,6.38
2023-04-11T22:29:21.757Z,5.95
2023-04-11T22:33:47.382Z,6.78
2023-04-11T22:38:11.697Z,6.50
2023-04-11T22:42:36.145Z,7.07
2023-04-11T22:47:18.007Z,6.57
2023-04-11T22:51:43.919Z,6.80
2023-04-11T22:56:12.574Z,9.50
2023-04-11T23:00:38.415Z,6.45
2023-04-11T23:05:03.726Z,6.43
2023-04-11T23:09:34.263Z,4.75
2023-04-11T23:13:58.266Z,4.45
2023-04-11T23:18:22.392Z,6.07
2023-04-11T23:22:48.702Z,6.93
2023-04-11T23:27:17.514Z,6.63
2023-04-11T23:31:44.114Z,6.80
2023-04-11T23:36:09.233Z,6.93
2023-04-11T23:40:36.226Z,8.30
2023-04-11T23:45:02.368Z,8.15
2023-04-11T23:49:26.735Z,5.67
2023-04-11T23:53:50.641Z,7.13
2023-04-11T23:58:14.893Z,8.30
